sensor_id;sensor_type;location;lat;lon;timestamp;temperature;humidity
85097;SHT30;75436;53.502;10.030;2024-02-28T00:01:23;3.12;81.59
85097;SHT30;75436;53.502;10.030;2024-02-28T00:03:48;3.15;81.39
85097;SHT30;75436;53.502;10.030;2024-02-28T00:06:16;3.24;81.28
85097;SHT30;75436;53.502;10.030;2024-02-28T00:08:42;3.22;81.64
85097;SHT30;75436;53.502;10.030;2024-02-28T00:11:07;3.20;81.97
85097;SHT30;75436;53.502;10.030;2024-02-28T00:13:33;3.18;82.23
85097;SHT30;75436;53.502;10.030;2024-02-28T00:15:58;3.17;82.08
85097;SHT30;75436;53.502;10.030;2024-02-28T00:18:23;3.12;81.74
85097;SHT30;75436;53.502;10.030;2024-02-28T00:20:49;3.12;82.26
85097;SHT30;75436;53.502;10.030;2024-02-28T00:23:14;3.12;82.23
85097;SHT30;75436;53.502;10.030;2024-02-28T00:25:39;3.08;82.41
85097;SHT30;75436;53.502;10.030;2024-02-28T00:28:05;3.17;82.64
85097;SHT30;75436;53.502;10.030;2024-02-28T00:30:30;3.10;82.47
85097;SHT30;75436;53.502;10.030;2024-02-28T00:32:57;3.00;82.48
85097;SHT30;75436;53.502;10.030;2024-02-28T00:35:22;2.99;82.52
85097;SHT30;75436;53.502;10.030;2024-02-28T00:37:48;2.97;82.50
85097;SHT30;75436;53.502;10.030;2024-02-28T00:40:13;2.91;83.23
85097;SHT30;75436;53.502;10.030;2024-02-28T00:42:39;2.91;83.23
85097;SHT30;75436;53.502;10.030;2024-02-28T00:45:05;2.89;83.38
85097;SHT30;75436;53.502;10.030;2024-02-28T00:47:30;2.79;83.46
85097;SHT30;75436;53.502;10.030;2024-02-28T00:49:57;2.79;83.70
85097;SHT30;75436;53.502;10.030;2024-02-28T00:52:22;2.73;83.48
85097;SHT30;75436;53.502;10.030;2024-02-28T00:54:49;2.66;83.76
85097;SHT30;75436;53.502;10.030;2024-02-28T00:57:15;2.64;83.90
85097;SHT30;75436;53.502;10.030;2024-02-28T00:59:40;2.62;84.10
85097;SHT30;75436;53.502;10.030;2024-02-28T01:02:05;2.60;84.19
85097;SHT30;75436;53.502;10.030;2024-02-28T01:04:32;2.56;84.37
85097;SHT30;75436;53.502;10.030;2024-02-28T01:06:57;2.60;84.48
85097;SHT30;75436;53.502;10.030;2024-02-28T01:09:22;2.64;84.42
85097;SHT30;75436;53.502;10.030;2024-02-28T01:11:48;2.64;84.20
85097;SHT30;75436;53.502;10.030;2024-02-28T01:14:13;2.69;84.16
85097;SHT30;75436;53.502;10.030;2024-02-28T01:16:39;2.70;84.13
85097;SHT30;75436;53.502;10.030;2024-02-28T01:19:04;2.67;83.87
85097;SHT30;75436;53.502;10.030;2024-02-28T01:21:29;2.70;84.06
85097;SHT30;75436;53.502;10.030;2024-02-28T01:23:55;2.69;84.14
85097;SHT30;75436;53.502;10.030;2024-02-28T01:26:20;2.69;83.95
85097;SHT30;75436;53.502;10.030;2024-02-28T01:28:47;2.67;84.27
85097;SHT30;75436;53.502;10.030;2024-02-28T01:31:13;2.76;83.94
85097;SHT30;75436;53.502;10.030;2024-02-28T01:33:39;2.75;83.57
85097;SHT30;75436;53.502;10.030;2024-02-28T01:36:06;2.83;83.79
85097;SHT30;75436;53.502;10.030;2024-02-28T01:38:32;2.80;83.43
85097;SHT30;75436;53.502;10.030;2024-02-28T01:40:57;2.80;83.49
85097;SHT30;75436;53.502;10.030;2024-02-28T01:43:23;2.77;83.01
85097;SHT30;75436;53.502;10.030;2024-02-28T01:45:50;2.73;82.93
85097;SHT30;75436;53.502;10.030;2024-02-28T01:48:16;2.73;83.01
85097;SHT30;75436;53.502;10.030;2024-02-28T01:50:42;2.72;83.62
85097;SHT30;75436;53.502;10.030;2024-02-28T01:53:09;2.76;83.49
85097;SHT30;75436;53.502;10.030;2024-02-28T01:55:37;2.76;83.04
85097;SHT30;75436;53.502;10.030;2024-02-28T01:58:04;2.64;83.52
85097;SHT30;75436;53.502;10.030;2024-02-28T02:00:33;2.63;83.66
85097;SHT30;75436;53.502;10.030;2024-02-28T02:03:01;2.62;83.87
85097;SHT30;75436;53.502;10.030;2024-02-28T02:05:26;2.63;84.33
85097;SHT30;75436;53.502;10.030;2024-02-28T02:07:52;2.60;83.94
85097;SHT30;75436;53.502;10.030;2024-02-28T02:10:17;2.69;83.86
85097;SHT30;75436;53.502;10.030;2024-02-28T02:12:43;2.67;83.67
85097;SHT30;75436;53.502;10.030;2024-02-28T02:15:08;2.70;83.43
85097;SHT30;75436;53.502;10.030;2024-02-28T02:17:34;2.64;83.32
85097;SHT30;75436;53.502;10.030;2024-02-28T02:20:00;2.64;83.29
85097;SHT30;75436;53.502;10.030;2024-02-28T02:22:32;2.66;83.57
85097;SHT30;75436;53.502;10.030;2024-02-28T02:24:57;2.76;83.33
85097;SHT30;75436;53.502;10.030;2024-02-28T02:27:24;2.72;83.38
85097;SHT30;75436;53.502;10.030;2024-02-28T02:29:51;2.79;83.37
85097;SHT30;75436;53.502;10.030;2024-02-28T02:32:16;2.75;83.18
85097;SHT30;75436;53.502;10.030;2024-02-28T02:34:41;2.80;83.35
85097;SHT30;75436;53.502;10.030;2024-02-28T02:37:07;2.79;83.38
85097;SHT30;75436;53.502;10.030;2024-02-28T02:39:34;2.79;83.61
85097;SHT30;75436;53.502;10.030;2024-02-28T02:41:59;2.80;83.49
85097;SHT30;75436;53.502;10.030;2024-02-28T02:44:25;2.84;83.51
85097;SHT30;75436;53.502;10.030;2024-02-28T02:46:50;2.75;83.01
85097;SHT30;75436;53.502;10.030;2024-02-28T02:49:16;2.84;82.56
85097;SHT30;75436;53.502;10.030;2024-02-28T02:51:43;2.89;82.31
85097;SHT30;75436;53.502;10.030;2024-02-28T02:54:08;2.80;82.84
85097;SHT30;75436;53.502;10.030;2024-02-28T02:56:34;2.81;82.42
85097;SHT30;75436;53.502;10.030;2024-02-28T02:58:59;2.75;82.29
85097;SHT30;75436;53.502;10.030;2024-02-28T03:01:25;2.77;82.64
85097;SHT30;75436;53.502;10.030;2024-02-28T03:03:50;2.79;82.80
85097;SHT30;75436;53.502;10.030;2024-02-28T03:06:16;2.75;83.02
85097;SHT30;75436;53.502;10.030;2024-02-28T03:08:41;2.72;83.39
85097;SHT30;75436;53.502;10.030;2024-02-28T03:11:06;2.70;83.51
85097;SHT30;75436;53.502;10.030;2024-02-28T03:13:34;2.70;83.30
85097;SHT30;75436;53.502;10.030;2024-02-28T03:15:59;2.69;83.21
85097;SHT30;75436;53.502;10.030;2024-02-28T03:18:25;2.67;83.04
85097;SHT30;75436;53.502;10.030;2024-02-28T03:20:50;2.80;82.40
85097;SHT30;75436;53.502;10.030;2024-02-28T03:23:15;2.70;82.28
85097;SHT30;75436;53.502;10.030;2024-02-28T03:25:41;2.70;82.52
85097;SHT30;75436;53.502;10.030;2024-02-28T03:28:06;2.70;82.45
85097;SHT30;75436;53.502;10.030;2024-02-28T03:30:31;2.64;82.61
85097;SHT30;75436;53.502;10.030;2024-02-28T03:32:57;2.63;83.02
85097;SHT30;75436;53.502;10.030;2024-02-28T03:35:22;2.69;83.14
85097;SHT30;75436;53.502;10.030;2024-02-28T03:37:48;2.64;82.87
85097;SHT30;75436;53.502;10.030;2024-02-28T03:40:13;2.64;82.63
85097;SHT30;75436;53.502;10.030;2024-02-28T03:42:40;2.66;82.51
85097;SHT30;75436;53.502;10.030;2024-02-28T03:45:06;2.67;82.76
85097;SHT30;75436;53.502;10.030;2024-02-28T03:47:31;2.67;82.70
85097;SHT30;75436;53.502;10.030;2024-02-28T03:49:56;2.69;82.92
85097;SHT30;75436;53.502;10.030;2024-02-28T03:52:23;2.70;82.81
85097;SHT30;75436;53.502;10.030;2024-02-28T03:54:48;2.76;82.93
85097;SHT30;75436;53.502;10.030;2024-02-28T03:57:14;2.80;83.10
85097;SHT30;75436;53.502;10.030;2024-02-28T03:59:43;2.83;83.48
85097;SHT30;75436;53.502;10.030;2024-02-28T04:02:09;2.79;83.56
85097;SHT30;75436;53.502;10.030;2024-02-28T04:04:34;2.81;83.90
85097;SHT30;75436;53.502;10.030;2024-02-28T04:07:00;2.87;83.83
85097;SHT30;75436;53.502;10.030;2024-02-28T04:09:25;2.83;83.86
85097;SHT30;75436;53.502;10.030;2024-02-28T04:11:51;2.79;83.62
85097;SHT30;75436;53.502;10.030;2024-02-28T04:14:16;2.81;83.61
85097;SHT30;75436;53.502;10.030;2024-02-28T04:16:43;2.80;84.04
85097;SHT30;75436;53.502;10.030;2024-02-28T04:19:12;2.80;84.28
85097;SHT30;75436;53.502;10.030;2024-02-28T04:21:38;2.80;84.33
85097;SHT30;75436;53.502;10.030;2024-02-28T04:24:05;2.80;84.40
85097;SHT30;75436;53.502;10.030;2024-02-28T04:26:31;2.80;84.19
85097;SHT30;75436;53.502;10.030;2024-02-28T04:28:56;2.86;84.30
85097;SHT30;75436;53.502;10.030;2024-02-28T04:31:22;2.87;83.96
85097;SHT30;75436;53.502;10.030;2024-02-28T04:33:47;2.93;83.97
85097;SHT30;75436;53.502;10.030;2024-02-28T04:36:13;2.91;84.20
85097;SHT30;75436;53.502;10.030;2024-02-28T04:38:40;2.97;84.36
85097;SHT30;75436;53.502;10.030;2024-02-28T04:41:05;2.97;84.54
85097;SHT30;75436;53.502;10.030;2024-02-28T04:43:30;2.87;84.06
85097;SHT30;75436;53.502;10.030;2024-02-28T04:45:56;2.94;84.24
85097;SHT30;75436;53.502;10.030;2024-02-28T04:48:21;2.87;84.08
85097;SHT30;75436;53.502;10.030;2024-02-28T04:50:47;2.81;84.46
85097;SHT30;75436;53.502;10.030;2024-02-28T04:53:13;2.81;84.51
85097;SHT30;75436;53.502;10.030;2024-02-28T04:55:39;2.72;84.89
85097;SHT30;75436;53.502;10.030;2024-02-28T04:58:04;2.89;84.65
85097;SHT30;75436;53.502;10.030;2024-02-28T05:00:30;2.77;84.78
85097;SHT30;75436;53.502;10.030;2024-02-28T05:02:55;2.80;85.27
85097;SHT30;75436;53.502;10.030;2024-02-28T05:05:21;2.90;84.86
85097;SHT30;75436;53.502;10.030;2024-02-28T05:07:46;2.83;85.04
85097;SHT30;75436;53.502;10.030;2024-02-28T05:10:11;2.80;85.19
85097;SHT30;75436;53.502;10.030;2024-02-28T05:12:37;2.79;85.17
85097;SHT30;75436;53.502;10.030;2024-02-28T05:15:03;2.79;85.35
85097;SHT30;75436;53.502;10.030;2024-02-28T05:17:29;2.76;84.79
85097;SHT30;75436;53.502;10.030;2024-02-28T05:19:54;2.81;85.14
85097;SHT30;75436;53.502;10.030;2024-02-28T05:22:22;2.72;85.77
85097;SHT30;75436;53.502;10.030;2024-02-28T05:24:47;2.77;85.83
85097;SHT30;75436;53.502;10.030;2024-02-28T05:27:13;2.76;85.62
85097;SHT30;75436;53.502;10.030;2024-02-28T05:29:38;2.79;85.80
85097;SHT30;75436;53.502;10.030;2024-02-28T05:32:05;2.79;85.74
85097;SHT30;75436;53.502;10.030;2024-02-28T05:34:31;2.76;86.07
85097;SHT30;75436;53.502;10.030;2024-02-28T05:36:56;2.79;85.79
85097;SHT30;75436;53.502;10.030;2024-02-28T05:39:22;2.77;85.93
85097;SHT30;75436;53.502;10.030;2024-02-28T05:41:48;2.83;86.07
85097;SHT30;75436;53.502;10.030;2024-02-28T05:44:13;2.83;85.98
85097;SHT30;75436;53.502;10.030;2024-02-28T05:46:39;2.89;86.00
85097;SHT30;75436;53.502;10.030;2024-02-28T05:49:05;2.77;86.21
85097;SHT30;75436;53.502;10.030;2024-02-28T05:51:30;2.79;86.28
85097;SHT30;75436;53.502;10.030;2024-02-28T05:53:56;2.64;86.52
85097;SHT30;75436;53.502;10.030;2024-02-28T05:56:21;2.63;86.73
85097;SHT30;75436;53.502;10.030;2024-02-28T05:58:48;2.59;86.55
85097;SHT30;75436;53.502;10.030;2024-02-28T06:01:17;2.56;86.91
85097;SHT30;75436;53.502;10.030;2024-02-28T06:03:47;2.53;87.13
85097;SHT30;75436;53.502;10.030;2024-02-28T06:06:13;2.52;87.46
85097;SHT30;75436;53.502;10.030;2024-02-28T06:08:40;2.56;87.75
85097;SHT30;75436;53.502;10.030;2024-02-28T06:11:06;2.59;87.73
85097;SHT30;75436;53.502;10.030;2024-02-28T06:13:32;2.60;87.81
85097;SHT30;75436;53.502;10.030;2024-02-28T06:15:59;2.66;87.59
85097;SHT30;75436;53.502;10.030;2024-02-28T06:18:26;2.75;86.81
85097;SHT30;75436;53.502;10.030;2024-02-28T06:20:56;2.72;86.65
85097;SHT30;75436;53.502;10.030;2024-02-28T06:23:23;2.72;86.50
85097;SHT30;75436;53.502;10.030;2024-02-28T06:25:49;2.76;86.92
85097;SHT30;75436;53.502;10.030;2024-02-28T06:28:15;2.72;87.21
85097;SHT30;75436;53.502;10.030;2024-02-28T06:30:43;2.75;86.42
85097;SHT30;75436;53.502;10.030;2024-02-28T06:33:12;2.76;86.14
85097;SHT30;75436;53.502;10.030;2024-02-28T06:35:38;2.75;86.19
85097;SHT30;75436;53.502;10.030;2024-02-28T06:38:04;2.80;86.29
85097;SHT30;75436;53.502;10.030;2024-02-28T06:40:29;2.80;86.02
85097;SHT30;75436;53.502;10.030;2024-02-28T06:42:55;2.79;86.07
85097;SHT30;75436;53.502;10.030;2024-02-28T06:45:21;2.81;85.45
85097;SHT30;75436;53.502;10.030;2024-02-28T06:47:47;2.84;85.29
85097;SHT30;75436;53.502;10.030;2024-02-28T06:50:13;2.90;85.15
85097;SHT30;75436;53.502;10.030;2024-02-28T06:52:38;2.86;85.25
85097;SHT30;75436;53.502;10.030;2024-02-28T06:55:04;2.81;85.42
85097;SHT30;75436;53.502;10.030;2024-02-28T06:57:37;2.84;85.81
85097;SHT30;75436;53.502;10.030;2024-02-28T07:00:08;2.86;85.77
85097;SHT30;75436;53.502;10.030;2024-02-28T07:02:35;2.90;85.49
85097;SHT30;75436;53.502;10.030;2024-02-28T07:05:01;2.91;85.93
85097;SHT30;75436;53.502;10.030;2024-02-28T07:07:26;2.94;86.21
85097;SHT30;75436;53.502;10.030;2024-02-28T07:09:51;2.93;86.19
85097;SHT30;75436;53.502;10.030;2024-02-28T07:12:17;2.94;85.76
85097;SHT30;75436;53.502;10.030;2024-02-28T07:14:42;2.91;85.71
85097;SHT30;75436;53.502;10.030;2024-02-28T07:17:08;2.86;85.69
85097;SHT30;75436;53.502;10.030;2024-02-28T07:19:33;2.93;85.79
85097;SHT30;75436;53.502;10.030;2024-02-28T07:21:59;2.93;85.69
85097;SHT30;75436;53.502;10.030;2024-02-28T07:24:24;2.96;85.81
85097;SHT30;75436;53.502;10.030;2024-02-28T07:26:50;2.99;85.22
85097;SHT30;75436;53.502;10.030;2024-02-28T07:29:16;3.04;85.82
85097;SHT30;75436;53.502;10.030;2024-02-28T07:31:41;3.11;85.77
85097;SHT30;75436;53.502;10.030;2024-02-28T07:34:07;3.14;85.53
85097;SHT30;75436;53.502;10.030;2024-02-28T07:36:33;3.25;85.21
85097;SHT30;75436;53.502;10.030;2024-02-28T07:38:59;3.32;85.10
85097;SHT30;75436;53.502;10.030;2024-02-28T07:41:24;3.34;84.79
85097;SHT30;75436;53.502;10.030;2024-02-28T07:43:50;3.49;84.83
85097;SHT30;75436;53.502;10.030;2024-02-28T07:46:15;3.58;84.42
85097;SHT30;75436;53.502;10.030;2024-02-28T07:48:40;3.73;84.13
85097;SHT30;75436;53.502;10.030;2024-02-28T07:51:09;3.72;83.82
85097;SHT30;75436;53.502;10.030;2024-02-28T07:53:35;3.76;83.75
85097;SHT30;75436;53.502;10.030;2024-02-28T07:56:00;3.78;83.60
85097;SHT30;75436;53.502;10.030;2024-02-28T07:58:26;3.97;83.17
85097;SHT30;75436;53.502;10.030;2024-02-28T08:00:51;4.24;83.21
85097;SHT30;75436;53.502;10.030;2024-02-28T08:03:19;4.20;81.05
85097;SHT30;75436;53.502;10.030;2024-02-28T08:05:45;4.07;82.02
85097;SHT30;75436;53.502;10.030;2024-02-28T08:08:11;4.17;82.43
85097;SHT30;75436;53.502;10.030;2024-02-28T08:10:37;4.17;82.11
85097;SHT30;75436;53.502;10.030;2024-02-28T08:13:04;4.10;82.10
85097;SHT30;75436;53.502;10.030;2024-02-28T08:15:30;4.20;82.06
85097;SHT30;75436;53.502;10.030;2024-02-28T08:17:55;4.04;82.34
85097;SHT30;75436;53.502;10.030;2024-02-28T08:20:21;4.36;82.22
85097;SHT30;75436;53.502;10.030;2024-02-28T08:22:46;4.38;81.06
85097;SHT30;75436;53.502;10.030;2024-02-28T08:25:16;4.42;82.02
85097;SHT30;75436;53.502;10.030;2024-02-28T08:27:42;4.51;81.80
85097;SHT30;75436;53.502;10.030;2024-02-28T08:30:08;4.62;81.53
85097;SHT30;75436;53.502;10.030;2024-02-28T08:32:33;4.69;80.58
85097;SHT30;75436;53.502;10.030;2024-02-28T08:35:00;4.83;80.81
85097;SHT30;75436;53.502;10.030;2024-02-28T08:37:25;4.88;80.60
85097;SHT30;75436;53.502;10.030;2024-02-28T08:39:52;4.80;80.62
85097;SHT30;75436;53.502;10.030;2024-02-28T08:42:20;4.88;80.22
85097;SHT30;75436;53.502;10.030;2024-02-28T08:44:45;4.89;80.23
85097;SHT30;75436;53.502;10.030;2024-02-28T08:47:13;5.03;80.04
85097;SHT30;75436;53.502;10.030;2024-02-28T08:49:39;5.30;79.99
85097;SHT30;75436;53.502;10.030;2024-02-28T08:52:05;5.40;78.74
85097;SHT30;75436;53.502;10.030;2024-02-28T08:54:30;5.77;78.00
85097;SHT30;75436;53.502;10.030;2024-02-28T08:56:56;5.75;77.85
85097;SHT30;75436;53.502;10.030;2024-02-28T08:59:21;5.67;78.06
85097;SHT30;75436;53.502;10.030;2024-02-28T09:01:48;6.06;76.97
85097;SHT30;75436;53.502;10.030;2024-02-28T09:04:13;6.22;76.54
85097;SHT30;75436;53.502;10.030;2024-02-28T09:06:39;6.34;76.11
85097;SHT30;75436;53.502;10.030;2024-02-28T09:09:04;6.61;74.76
85097;SHT30;75436;53.502;10.030;2024-02-28T09:11:29;6.96;74.42
85097;SHT30;75436;53.502;10.030;2024-02-28T09:13:55;7.22;73.70
85097;SHT30;75436;53.502;10.030;2024-02-28T09:16:20;7.63;72.15
85097;SHT30;75436;53.502;10.030;2024-02-28T09:18:46;7.81;70.11
85097;SHT30;75436;53.502;10.030;2024-02-28T09:21:11;7.93;70.10
85097;SHT30;75436;53.502;10.030;2024-02-28T09:23:36;8.09;69.99
85097;SHT30;75436;53.502;10.030;2024-02-28T09:26:05;7.69;71.51
85097;SHT30;75436;53.502;10.030;2024-02-28T09:28:31;7.62;70.75
85097;SHT30;75436;53.502;10.030;2024-02-28T09:30:56;7.08;72.65
85097;SHT30;75436;53.502;10.030;2024-02-28T09:33:22;7.01;72.47
85097;SHT30;75436;53.502;10.030;2024-02-28T09:35:48;7.14;73.93
85097;SHT30;75436;53.502;10.030;2024-02-28T09:38:13;6.99;73.37
85097;SHT30;75436;53.502;10.030;2024-02-28T09:40:39;7.15;73.23
85097;SHT30;75436;53.502;10.030;2024-02-28T09:43:04;7.84;71.31
85097;SHT30;75436;53.502;10.030;2024-02-28T09:45:31;9.01;68.72
85097;SHT30;75436;53.502;10.030;2024-02-28T09:48:00;9.17;67.28
85097;SHT30;75436;53.502;10.030;2024-02-28T09:50:26;9.92;64.04
85097;SHT30;75436;53.502;10.030;2024-02-28T09:52:53;11.16;62.32
85097;SHT30;75436;53.502;10.030;2024-02-28T09:55:19;11.08;60.29
85097;SHT30;75436;53.502;10.030;2024-02-28T09:57:48;11.36;57.51
85097;SHT30;75436;53.502;10.030;2024-02-28T10:00:19;11.57;59.71
85097;SHT30;75436;53.502;10.030;2024-02-28T10:02:47;11.74;56.75
85097;SHT30;75436;53.502;10.030;2024-02-28T10:05:17;10.16;60.88
85097;SHT30;75436;53.502;10.030;2024-02-28T10:07:49;9.27;64.13
85097;SHT30;75436;53.502;10.030;2024-02-28T10:10:15;9.52;63.21
85097;SHT30;75436;53.502;10.030;2024-02-28T10:12:42;9.85;63.61
85097;SHT30;75436;53.502;10.030;2024-02-28T10:15:10;9.85;64.15
85097;SHT30;75436;53.502;10.030;2024-02-28T10:17:36;10.76;60.93
85097;SHT30;75436;53.502;10.030;2024-02-28T10:20:02;9.42;63.52
85097;SHT30;75436;53.502;10.030;2024-02-28T10:22:34;9.15;64.81
85097;SHT30;75436;53.502;10.030;2024-02-28T10:25:00;8.91;64.74
85097;SHT30;75436;53.502;10.030;2024-02-28T10:27:26;9.28;65.38
85097;SHT30;75436;53.502;10.030;2024-02-28T10:29:51;9.17;65.11
85097;SHT30;75436;53.502;10.030;2024-02-28T10:32:16;9.15;65.01
85097;SHT30;75436;53.502;10.030;2024-02-28T10:34:43;9.59;64.95
85097;SHT30;75436;53.502;10.030;2024-02-28T10:37:09;10.25;62.90
85097;SHT30;75436;53.502;10.030;2024-02-28T10:39:35;10.51;62.63
85097;SHT30;75436;53.502;10.030;2024-02-28T10:42:02;11.24;60.91
85097;SHT30;75436;53.502;10.030;2024-02-28T10:44:29;11.16;59.46
85097;SHT30;75436;53.502;10.030;2024-02-28T10:46:56;10.37;61.29
85097;SHT30;75436;53.502;10.030;2024-02-28T10:49:22;10.13;63.00
85097;SHT30;75436;53.502;10.030;2024-02-28T10:51:49;9.27;65.49
85097;SHT30;75436;53.502;10.030;2024-02-28T10:54:18;9.89;64.77
85097;SHT30;75436;53.502;10.030;2024-02-28T10:56:45;9.92;64.69
85097;SHT30;75436;53.502;10.030;2024-02-28T10:59:12;10.48;63.84
85097;SHT30;75436;53.502;10.030;2024-02-28T11:01:44;10.50;62.84
85097;SHT30;75436;53.502;10.030;2024-02-28T11:04:14;10.67;61.26
85097;SHT30;75436;53.502;10.030;2024-02-28T11:06:55;10.51;61.89
85097;SHT30;75436;53.502;10.030;2024-02-28T11:09:25;10.11;63.50
85097;SHT30;75436;53.502;10.030;2024-02-28T11:11:51;10.57;62.08
85097;SHT30;75436;53.502;10.030;2024-02-28T11:14:18;9.99;63.77
85097;SHT30;75436;53.502;10.030;2024-02-28T11:16:47;9.89;64.24
85097;SHT30;75436;53.502;10.030;2024-02-28T11:19:22;9.56;66.46
85097;SHT30;75436;53.502;10.030;2024-02-28T11:21:55;9.42;65.87
85097;SHT30;75436;53.502;10.030;2024-02-28T11:24:29;9.35;66.77
85097;SHT30;75436;53.502;10.030;2024-02-28T11:26:56;8.91;68.05
85097;SHT30;75436;53.502;10.030;2024-02-28T11:29:26;8.79;68.41
85097;SHT30;75436;53.502;10.030;2024-02-28T11:31:52;8.55;68.88
85097;SHT30;75436;53.502;10.030;2024-02-28T11:34:19;8.43;69.69
85097;SHT30;75436;53.502;10.030;2024-02-28T11:36:50;8.50;69.71
85097;SHT30;75436;53.502;10.030;2024-02-28T11:39:17;8.29;70.63
85097;SHT30;75436;53.502;10.030;2024-02-28T11:41:46;8.38;70.54
85097;SHT30;75436;53.502;10.030;2024-02-28T11:44:16;8.36;70.37
85097;SHT30;75436;53.502;10.030;2024-02-28T11:46:49;8.38;70.23
85097;SHT30;75436;53.502;10.030;2024-02-28T11:49:15;8.28;71.33
85097;SHT30;75436;53.502;10.030;2024-02-28T11:51:42;8.43;70.97
85097;SHT30;75436;53.502;10.030;2024-02-28T11:54:09;8.32;71.46
85097;SHT30;75436;53.502;10.030;2024-02-28T11:56:38;8.25;70.65
85097;SHT30;75436;53.502;10.030;2024-02-28T11:59:04;7.98;72.00
85097;SHT30;75436;53.502;10.030;2024-02-28T12:01:38;8.38;71.96
85097;SHT30;75436;53.502;10.030;2024-02-28T12:04:05;8.33;71.52
85097;SHT30;75436;53.502;10.030;2024-02-28T12:06:36;8.43;71.59
85097;SHT30;75436;53.502;10.030;2024-02-28T12:09:03;8.14;71.32
85097;SHT30;75436;53.502;10.030;2024-02-28T12:11:32;7.98;72.00
85097;SHT30;75436;53.502;10.030;2024-02-28T12:13:57;8.24;71.45
85097;SHT30;75436;53.502;10.030;2024-02-28T12:16:25;8.31;71.62
85097;SHT30;75436;53.502;10.030;2024-02-28T12:18:53;8.14;72.52
85097;SHT30;75436;53.502;10.030;2024-02-28T12:21:20;8.41;71.81
85097;SHT30;75436;53.502;10.030;2024-02-28T12:23:50;8.55;73.06
85097;SHT30;75436;53.502;10.030;2024-02-28T12:26:18;8.33;71.89
85097;SHT30;75436;53.502;10.030;2024-02-28T12:28:44;8.24;72.45
85097;SHT30;75436;53.502;10.030;2024-02-28T12:31:10;8.42;72.32
85097;SHT30;75436;53.502;10.030;2024-02-28T12:33:37;8.26;72.61
85097;SHT30;75436;53.502;10.030;2024-02-28T12:36:03;8.29;72.50
85097;SHT30;75436;53.502;10.030;2024-02-28T12:38:30;8.18;72.95
85097;SHT30;75436;53.502;10.030;2024-02-28T12:40:56;8.33;72.28
85097;SHT30;75436;53.502;10.030;2024-02-28T12:43:22;8.48;72.39
85097;SHT30;75436;53.502;10.030;2024-02-28T12:45:48;8.24;73.28
85097;SHT30;75436;53.502;10.030;2024-02-28T12:48:13;8.59;73.01
85097;SHT30;75436;53.502;10.030;2024-02-28T12:50:38;8.63;72.59
85097;SHT30;75436;53.502;10.030;2024-02-28T12:53:04;8.24;72.96
85097;SHT30;75436;53.502;10.030;2024-02-28T12:55:31;8.31;73.22
85097;SHT30;75436;53.502;10.030;2024-02-28T12:57:56;8.32;73.68
85097;SHT30;75436;53.502;10.030;2024-02-28T13:00:21;8.20;73.55
85097;SHT30;75436;53.502;10.030;2024-02-28T13:02:47;8.09;73.26
85097;SHT30;75436;53.502;10.030;2024-02-28T13:05:12;7.97;73.17
85097;SHT30;75436;53.502;10.030;2024-02-28T13:07:39;8.08;73.73
85097;SHT30;75436;53.502;10.030;2024-02-28T13:10:06;8.06;73.86
85097;SHT30;75436;53.502;10.030;2024-02-28T13:12:31;8.31;73.30
85097;SHT30;75436;53.502;10.030;2024-02-28T13:14:58;8.39;73.60
85097;SHT30;75436;53.502;10.030;2024-02-28T13:17:24;8.48;73.43
85097;SHT30;75436;53.502;10.030;2024-02-28T13:19:51;8.35;72.78
85097;SHT30;75436;53.502;10.030;2024-02-28T13:22:16;8.29;73.20
85097;SHT30;75436;53.502;10.030;2024-02-28T13:24:41;8.36;73.50
85097;SHT30;75436;53.502;10.030;2024-02-28T13:27:07;8.38;73.82
85097;SHT30;75436;53.502;10.030;2024-02-28T13:29:34;8.36;73.49
85097;SHT30;75436;53.502;10.030;2024-02-28T13:32:00;8.29;73.81
85097;SHT30;75436;53.502;10.030;2024-02-28T13:34:27;8.29;73.81
85097;SHT30;75436;53.502;10.030;2024-02-28T13:36:52;8.26;74.31
85097;SHT30;75436;53.502;10.030;2024-02-28T13:39:18;8.16;74.44
85097;SHT30;75436;53.502;10.030;2024-02-28T13:41:44;8.25;74.09
85097;SHT30;75436;53.502;10.030;2024-02-28T13:44:10;8.32;75.02
85097;SHT30;75436;53.502;10.030;2024-02-28T13:46:35;8.36;74.44
85097;SHT30;75436;53.502;10.030;2024-02-28T13:49:01;8.53;74.91
85097;SHT30;75436;53.502;10.030;2024-02-28T13:51:26;8.48;74.86
85097;SHT30;75436;53.502;10.030;2024-02-28T13:53:52;8.49;73.47
85097;SHT30;75436;53.502;10.030;2024-02-28T13:56:18;8.50;74.87
85097;SHT30;75436;53.502;10.030;2024-02-28T13:58:43;8.62;73.09
85097;SHT30;75436;53.502;10.030;2024-02-28T14:01:09;8.53;74.86
85097;SHT30;75436;53.502;10.030;2024-02-28T14:03:35;8.33;74.19
85097;SHT30;75436;53.502;10.030;2024-02-28T14:06:00;8.21;74.61
85097;SHT30;75436;53.502;10.030;2024-02-28T14:08:26;7.95;75.13
85097;SHT30;75436;53.502;10.030;2024-02-28T14:10:52;8.01;75.30
85097;SHT30;75436;53.502;10.030;2024-02-28T14:13:18;8.12;75.77
85097;SHT30;75436;53.502;10.030;2024-02-28T14:15:44;8.16;75.23
85097;SHT30;75436;53.502;10.030;2024-02-28T14:18:12;8.33;75.29
85097;SHT30;75436;53.502;10.030;2024-02-28T14:20:37;8.49;75.67
85097;SHT30;75436;53.502;10.030;2024-02-28T14:23:05;8.36;74.14
85097;SHT30;75436;53.502;10.030;2024-02-28T14:25:31;8.18;74.96
85097;SHT30;75436;53.502;10.030;2024-02-28T14:27:56;8.09;75.09
85097;SHT30;75436;53.502;10.030;2024-02-28T14:30:22;8.05;75.91
85097;SHT30;75436;53.502;10.030;2024-02-28T14:32:48;7.81;76.54
85097;SHT30;75436;53.502;10.030;2024-02-28T14:35:16;7.80;77.23
85097;SHT30;75436;53.502;10.030;2024-02-28T14:37:41;7.78;77.60
85097;SHT30;75436;53.502;10.030;2024-02-28T14:40:09;7.77;77.99
85097;SHT30;75436;53.502;10.030;2024-02-28T14:42:44;7.71;78.04
85097;SHT30;75436;53.502;10.030;2024-02-28T14:45:14;7.63;78.51
85097;SHT30;75436;53.502;10.030;2024-02-28T14:47:43;7.50;78.74
85097;SHT30;75436;53.502;10.030;2024-02-28T14:50:10;7.56;78.97
85097;SHT30;75436;53.502;10.030;2024-02-28T14:52:42;7.50;78.72
85097;SHT30;75436;53.502;10.030;2024-02-28T14:55:09;7.49;79.54
85097;SHT30;75436;53.502;10.030;2024-02-28T14:57:39;7.52;79.10
85097;SHT30;75436;53.502;10.030;2024-02-28T15:00:09;7.57;79.04
85097;SHT30;75436;53.502;10.030;2024-02-28T15:02:40;7.46;79.01
85097;SHT30;75436;53.502;10.030;2024-02-28T15:05:06;7.53;78.94
85097;SHT30;75436;53.502;10.030;2024-02-28T15:07:36;7.53;79.03
85097;SHT30;75436;53.502;10.030;2024-02-28T15:10:03;7.54;79.07
85097;SHT30;75436;53.502;10.030;2024-02-28T15:12:30;7.59;79.23
85097;SHT30;75436;53.502;10.030;2024-02-28T15:15:02;7.54;78.83
85097;SHT30;75436;53.502;10.030;2024-02-28T15:17:28;7.57;78.60
85097;SHT30;75436;53.502;10.030;2024-02-28T15:19:54;7.60;79.07
85097;SHT30;75436;53.502;10.030;2024-02-28T15:22:19;7.70;79.16
85097;SHT30;75436;53.502;10.030;2024-02-28T15:24:45;7.57;79.50